createdAt,value
2023-05-14T00:00:55.502Z,11.57
2023-05-14T00:03:23.468Z,8.55
2023-05-14T00:05:51.277Z,10.77
2023-05-14T00:08:20.458Z,11.55
2023-05-14T00:10:48.201Z,9.52
2023-05-14T00:13:15.996Z,8.75
2023-05-14T00:15:44.608Z,11.73
2023-05-14T00:18:12.965Z,9.90
2023-05-14T00:20:42.406Z,8.63
2023-05-14T00:23:10.731Z,9.90
2023-05-14T00:25:40.365Z,10.13
2023-05-14T00:28:08.160Z,8.52
2023-05-14T00:30:35.885Z,6.85
2023-05-14T00:33:03.725Z,8.75
2023-05-14T00:35:31.720Z,11.07
2023-05-14T00:37:59.501Z,8.43
2023-05-14T00:40:28.500Z,11.43
2023-05-14T00:42:57.928Z,9.32
2023-05-14T00:45:26.017Z,11.32
2023-05-14T00:47:54.980Z,11.35
2023-05-14T00:50:23.835Z,7.15
2023-05-14T00:52:51.948Z,8.13
2023-05-14T00:55:20.868Z,9.70
2023-05-14T00:57:48.771Z,8.20
2023-05-14T01:00:18.733Z,6.65
2023-05-14T01:02:46.599Z,6.65
2023-05-14T01:05:14.480Z,17.02
2023-05-14T01:07:50.465Z,6.95
2023-05-14T01:10:26.542Z,11.40
2023-05-14T01:13:04.767Z,8.48
2023-05-14T01:15:37.123Z,11.27
2023-05-14T01:18:06.514Z,10.20
2023-05-14T01:20:34.322Z,7.72
2023-05-14T01:23:03.619Z,7.78
2023-05-14T01:25:32.225Z,7.53
2023-05-14T01:28:07.294Z,7.65
2023-05-14T01:30:37.913Z,9.63
2023-05-14T01:33:09.488Z,6.60
2023-05-14T01:35:37.928Z,8.90
2023-05-14T01:38:10.611Z,12.40
2023-05-14T01:43:06.386Z,7.90
2023-05-14T01:45:37.564Z,7.97
2023-05-14T01:48:06.289Z,8.30
2023-05-14T01:50:34.251Z,7.03
2023-05-14T01:53:02.164Z,6.57
2023-05-14T01:55:31.210Z,10.35
2023-05-14T01:57:58.951Z,9.45
2023-05-14T02:00:26.926Z,7.85
2023-05-14T02:02:54.856Z,10.07
2023-05-14T02:05:22.709Z,7.05
2023-05-14T02:07:50.547Z,7.25
2023-05-14T02:10:18.357Z,6.88
2023-05-14T02:12:47.510Z,10.10
2023-05-14T02:15:15.161Z,9.93
2023-05-14T02:17:42.976Z,9.48
2023-05-14T02:20:11.680Z,7.70
2023-05-14T02:22:42.186Z,9.30
2023-05-14T02:25:11.120Z,8.23
2023-05-14T02:27:38.971Z,8.43
2023-05-14T02:30:09.873Z,10.80
2023-05-14T02:32:38.815Z,12.07
2023-05-14T02:35:07.761Z,8.77
2023-05-14T02:37:35.696Z,8.20
2023-05-14T02:40:04.470Z,10.23
2023-05-14T02:42:32.598Z,9.35
2023-05-14T02:45:00.447Z,7.70
2023-05-14T02:47:29.541Z,10.10
2023-05-14T02:49:57.261Z,8.93
2023-05-14T02:52:25.104Z,7.85
2023-05-14T02:54:53.004Z,10.95
2023-05-14T02:57:21.166Z,9.88
2023-05-14T02:59:48.932Z,9.40
2023-05-14T03:02:17.064Z,8.02
2023-05-14T03:04:47.105Z,7.88
2023-05-14T03:07:14.857Z,7.70
2023-05-14T03:09:42.677Z,11.85
2023-05-14T03:12:10.468Z,7.50
2023-05-14T03:14:38.196Z,11.77
2023-05-14T03:17:06.231Z,11.75
2023-05-14T03:19:33.957Z,18.67
2023-05-14T03:22:03.165Z,11.98
2023-05-14T03:24:31.555Z,8.98
2023-05-14T03:26:59.264Z,9.27
2023-05-14T03:29:27.181Z,12.93
2023-05-14T03:31:54.951Z,10.32
2023-05-14T03:34:22.755Z,12.00
2023-05-14T03:36:50.472Z,8.80
2023-05-14T03:39:20.151Z,8.60
2023-05-14T03:41:48.435Z,10.05
2023-05-14T03:44:16.555Z,9.60
2023-05-14T03:46:44.453Z,11.77
2023-05-14T03:49:12.255Z,10.93
2023-05-14T03:51:40.344Z,10.05
2023-05-14T03:54:08.169Z,9.27
2023-05-14T03:56:39.380Z,10.13
2023-05-14T03:59:07.182Z,13.02
2023-05-14T04:01:35.004Z,10.23
2023-05-14T04:04:02.830Z,8.05
2023-05-14T04:06:31.198Z,10.80
2023-05-14T04:08:59.125Z,8.98
2023-05-14T04:11:27.020Z,10.68
2023-05-14T04:13:56.463Z,11.02
2023-05-14T04:16:24.463Z,9.73
2023-05-14T04:18:52.477Z,10.35
2023-05-14T04:21:20.456Z,10.10
2023-05-14T04:23:48.492Z,8.65
2023-05-14T04:26:16.452Z,9.70
2023-05-14T04:28:44.349Z,10.48
2023-05-14T04:31:13.793Z,10.88
2023-05-14T04:33:41.826Z,9.98
2023-05-14T04:36:10.054Z,10.68
2023-05-14T04:38:37.733Z,11.57
2023-05-14T04:41:06.043Z,9.30
2023-05-14T04:43:33.789Z,9.82
2023-05-14T04:46:01.949Z,9.52
2023-05-14T04:48:31.161Z,11.43
2023-05-14T04:50:59.033Z,12.68
2023-05-14T04:53:26.826Z,11.77
2023-05-14T04:55:54.576Z,14.23
2023-05-14T04:58:23.583Z,11.35
2023-05-14T05:00:51.643Z,12.77
2023-05-14T05:03:19.507Z,13.95
2023-05-14T05:05:48.892Z,10.63
2023-05-14T05:08:16.775Z,12.32
2023-05-14T05:10:44.544Z,12.52
2023-05-14T05:13:12.294Z,9.82
2023-05-14T05:15:40.224Z,8.63
2023-05-14T05:18:08.188Z,9.65
2023-05-14T05:20:35.959Z,9.50
2023-05-14T05:23:05.198Z,9.43
2023-05-14T05:25:33.137Z,8.52
2023-05-14T05:28:01.181Z,9.70
2023-05-14T05:30:30.218Z,10.27
2023-05-14T05:32:58.201Z,10.18
2023-05-14T05:35:26.075Z,13.55
2023-05-14T05:37:53.936Z,10.75
2023-05-14T05:40:23.314Z,11.50
2023-05-14T05:42:51.212Z,11.40
2023-05-14T05:45:18.970Z,11.35
2023-05-14T05:47:46.728Z,11.60
2023-05-14T05:50:15.034Z,10.57
2023-05-14T05:52:42.773Z,9.57
2023-05-14T05:55:11.107Z,10.80
2023-05-14T05:57:40.212Z,9.50
2023-05-14T06:00:13.656Z,8.63
2023-05-14T06:02:42.088Z,10.15
2023-05-14T06:05:11.478Z,10.38
2023-05-14T06:07:39.650Z,9.32
2023-05-14T06:10:08.678Z,8.75
2023-05-14T06:12:36.603Z,10.30
2023-05-14T06:15:06.585Z,9.43
2023-05-14T06:17:34.342Z,8.40
2023-05-14T06:20:02.258Z,9.48
2023-05-14T06:22:29.992Z,13.02
2023-05-14T06:24:57.817Z,8.95
2023-05-14T06:27:25.601Z,9.48
2023-05-14T06:29:53.508Z,11.77
2023-05-14T06:32:22.650Z,10.90
2023-05-14T06:34:50.509Z,8.68
2023-05-14T06:37:18.350Z,10.27
2023-05-14T06:39:50.221Z,8.55
2023-05-14T06:42:18.273Z,10.10
2023-05-14T06:44:46.443Z,11.73
2023-05-14T06:47:14.210Z,8.32
2023-05-14T06:49:43.399Z,12.82
2023-05-14T06:52:11.258Z,9.43
2023-05-14T06:54:39.378Z,7.80
2023-05-14T06:57:07.279Z,8.48
2023-05-14T06:59:35.033Z,8.88
2023-05-14T07:02:03.282Z,9.07
2023-05-14T07:04:31.198Z,9.13
2023-05-14T07:07:00.478Z,9.27
2023-05-14T07:09:28.255Z,8.57
2023-05-14T07:11:55.954Z,7.93
2023-05-14T07:14:23.745Z,7.25
2023-05-14T07:16:51.559Z,7.68
2023-05-14T07:19:19.528Z,9.20
2023-05-14T07:21:48.527Z,8.10
2023-05-14T07:24:17.740Z,15.38
2023-05-14T07:26:45.600Z,9.90
2023-05-14T07:29:13.434Z,7.50
2023-05-14T07:31:41.184Z,8.25
2023-05-14T07:34:10.933Z,10.00
2023-05-14T07:36:38.827Z,9.20
2023-05-14T07:39:06.608Z,9.23
2023-05-14T07:41:35.717Z,6.72
2023-05-14T07:44:03.450Z,10.52
2023-05-14T07:46:31.227Z,20.90
2023-05-14T07:48:58.902Z,10.95
2023-05-14T07:51:28.237Z,12.70
2023-05-14T07:53:56.568Z,6.20
2023-05-14T07:56:24.299Z,8.27
2023-05-14T07:58:53.526Z,7.47
2023-05-14T08:01:21.207Z,6.60
2023-05-14T08:03:48.977Z,10.07
2023-05-14T08:06:16.804Z,6.68
2023-05-14T08:08:44.618Z,7.35
2023-05-14T08:11:12.500Z,7.68
2023-05-14T08:13:40.377Z,6.45
2023-05-14T08:16:09.777Z,5.13
2023-05-14T08:18:37.496Z,5.32
2023-05-14T08:21:05.620Z,6.45
2023-05-14T08:23:33.377Z,6.60
2023-05-14T08:26:01.414Z,7.68
2023-05-14T08:28:29.180Z,7.40
2023-05-14T08:30:57.066Z,7.32
2023-05-14T08:33:26.262Z,6.40
2023-05-14T08:35:54.293Z,8.27
2023-05-14T08:38:22.053Z,8.60
2023-05-14T08:40:50.601Z,8.52
2023-05-14T08:43:24.716Z,12.93
2023-05-14T08:45:58.873Z,6.47
2023-05-14T08:48:33.207Z,5.95
2023-05-14T08:51:01.746Z,7.90
2023-05-14T08:53:29.629Z,6.95
2023-05-14T08:55:57.488Z,8.50
2023-05-14T08:58:26.681Z,6.13
2023-05-14T09:00:55.523Z,8.10
2023-05-14T09:03:23.943Z,7.28
2023-05-14T09:05:53.326Z,6.68
2023-05-14T09:08:21.105Z,7.20
2023-05-14T09:10:48.953Z,5.22
2023-05-14T09:13:16.817Z,6.78
2023-05-14T09:15:44.522Z,6.95
2023-05-14T09:18:12.485Z,8.38
2023-05-14T09:20:41.009Z,5.82
2023-05-14T09:23:10.197Z,9.68
2023-05-14T09:25:37.966Z,5.50
2023-05-14T09:28:08.347Z,6.65
2023-05-14T09:30:37.139Z,7.88
2023-05-14T09:33:05.214Z,11.48
2023-05-14T09:35:33.540Z,5.97
2023-05-14T09:38:01.643Z,6.18
2023-05-14T09:40:30.718Z,5.20
2023-05-14T09:42:58.559Z,7.38
2023-05-14T09:45:26.420Z,6.40
2023-05-14T09:47:54.566Z,7.95
2023-05-14T09:50:22.677Z,5.82
2023-05-14T09:52:50.691Z,5.20
2023-05-14T09:55:18.861Z,5.97
2023-05-14T09:57:48.042Z,6.13
2023-05-14T10:00:17.157Z,6.53
2023-05-14T10:02:47.798Z,6.95
2023-05-14T10:05:16.320Z,8.18
2023-05-14T10:07:47.878Z,6.47
2023-05-14T10:10:17.818Z,9.03
2023-05-14T10:12:52.726Z,6.57
2023-05-14T10:15:25.152Z,5.68
2023-05-14T10:20:26.795Z,5.05
2023-05-14T10:22:55.182Z,4.55
2023-05-14T10:25:26.416Z,8.50
2023-05-14T10:27:56.347Z,8.43
2023-05-14T10:30:24.507Z,8.50
2023-05-14T10:33:07.767Z,7.32
2023-05-14T10:35:56.261Z,7.22
2023-05-14T10:38:27.177Z,5.45
2023-05-14T10:40:59.032Z,5.43
2023-05-14T10:43:30.719Z,6.28
2023-05-14T10:45:59.393Z,10.15
2023-05-14T10:48:27.890Z,5.05
2023-05-14T10:50:58.015Z,4.68
2023-05-14T10:53:34.624Z,5.22
2023-05-14T10:56:07.623Z,8.00
2023-05-14T10:58:39.230Z,4.72
2023-05-14T11:01:08.521Z,6.00
2023-05-14T11:03:42.414Z,6.00
2023-05-14T11:06:13.165Z,6.50
2023-05-14T11:08:41.676Z,5.93
2023-05-14T11:11:10.988Z,5.28
2023-05-14T11:13:40.211Z,5.63
2023-05-14T11:16:21.670Z,6.30
2023-05-14T11:19:01.947Z,6.88
2023-05-14T11:21:30.225Z,6.50
2023-05-14T11:23:58.220Z,5.47
2023-05-14T11:26:27.124Z,5.75
2023-05-14T11:28:56.868Z,4.75
2023-05-14T11:31:25.344Z,4.40
2023-05-14T11:33:53.475Z,5.05
2023-05-14T11:36:21.606Z,4.07
2023-05-14T11:38:51.576Z,4.38
2023-05-14T11:41:21.292Z,5.43
2023-05-14T11:43:49.373Z,6.82
2023-05-14T11:46:19.769Z,4.68
2023-05-14T11:48:48.045Z,4.80
2023-05-14T11:51:16.030Z,4.68
2023-05-14T11:53:43.858Z,5.63
2023-05-14T11:56:11.674Z,4.90
2023-05-14T11:58:39.562Z,4.15
2023-05-14T12:01:07.579Z,5.78
2023-05-14T12:03:38.303Z,5.10
2023-05-14T12:06:08.236Z,4.28
2023-05-14T12:08:36.306Z,4.18
2023-05-14T12:11:04.155Z,6.03
2023-05-14T12:13:32.679Z,4.10
2023-05-14T12:16:02.455Z,4.90
2023-05-14T12:18:32.167Z,5.72
2023-05-14T12:21:05.185Z,5.93
2023-05-14T12:23:33.795Z,6.15
2023-05-14T12:26:06.904Z,4.60
2023-05-14T12:28:38.507Z,4.20
2023-05-14T12:31:06.957Z,4.10
2023-05-14T12:33:34.801Z,4.03
2023-05-14T12:36:20.335Z,4.00
2023-05-14T12:38:49.782Z,6.15
2023-05-14T12:41:18.230Z,3.65
2023-05-14T12:43:46.386Z,4.30
2023-05-14T12:46:14.168Z,3.97
2023-05-14T12:48:41.941Z,3.60
2023-05-14T12:51:11.137Z,4.97
2023-05-14T12:53:38.949Z,4.68
2023-05-14T12:56:07.509Z,4.15
2023-05-14T12:58:35.552Z,4.47
2023-05-14T13:01:03.380Z,4.32
2023-05-14T13:03:31.154Z,5.43
2023-05-14T13:05:59.054Z,3.92
2023-05-14T13:08:28.371Z,3.83
2023-05-14T13:10:57.060Z,3.88
2023-05-14T13:13:24.932Z,4.47
2023-05-14T13:15:54.252Z,4.13
2023-05-14T13:18:22.308Z,3.53
2023-05-14T13:20:50.118Z,4.68
2023-05-14T13:23:17.946Z,7.93
2023-05-14T13:25:49.130Z,4.75
2023-05-14T13:28:17.734Z,4.35
2023-05-14T13:31:05.153Z,4.40
2023-05-14T13:33:33.521Z,3.35
2023-05-14T13:36:01.447Z,3.28
2023-05-14T13:38:29.394Z,3.20
2023-05-14T13:41:02.188Z,4.18
2023-05-14T13:43:31.112Z,3.42
2023-05-14T13:45:59.514Z,3.95
2023-05-14T13:48:27.732Z,3.75
2023-05-14T13:50:55.670Z,4.25
2023-05-14T13:53:25.115Z,5.03
2023-05-14T13:55:56.273Z,3.50
2023-05-14T13:58:26.338Z,4.32
2023-05-14T14:00:54.364Z,4.00
2023-05-14T14:03:22.142Z,5.15
2023-05-14T14:05:50.099Z,3.70
2023-05-14T14:08:23.902Z,3.50
2023-05-14T14:10:52.550Z,6.45
2023-05-14T14:13:21.201Z,3.58
2023-05-14T14:15:51.170Z,3.40
2023-05-14T14:18:19.118Z,3.97
2023-05-14T14:20:46.875Z,12.50
2023-05-14T14:23:14.615Z,6.10
2023-05-14T14:25:42.424Z,4.32
2023-05-14T14:28:10.145Z,3.65
2023-05-14T14:30:37.826Z,4.50
2023-05-14T14:33:07.090Z,3.10
2023-05-14T14:35:35.761Z,3.25
2023-05-14T14:38:03.622Z,3.22
2023-05-14T14:40:31.384Z,3.10
2023-05-14T14:42:59.200Z,3.30
2023-05-14T14:45:26.982Z,3.08
2023-05-14T14:48:25.942Z,3.22
2023-05-14T14:50:54.261Z,5.55
2023-05-14T14:53:23.000Z,4.22
2023-05-14T14:55:51.410Z,3.10
2023-05-14T14:58:20.620Z,3.00
2023-05-14T15:00:49.089Z,3.30
2023-05-14T15:03:16.952Z,3.63
2023-05-14T15:05:46.208Z,2.95
2023-05-14T15:08:14.109Z,4.05
2023-05-14T15:10:41.901Z,4.15
2023-05-14T15:13:10.370Z,3.50
2023-05-14T15:15:38.437Z,2.97
2023-05-14T15:18:06.350Z,3.10
2023-05-14T15:20:34.170Z,2.80
2023-05-14T15:23:03.787Z,3.28
2023-05-14T15:25:31.642Z,4.78
2023-05-14T15:28:01.490Z,4.32
2023-05-14T15:30:29.305Z,3.70
2023-05-14T15:32:57.150Z,3.47
2023-05-14T15:35:25.170Z,2.90
2023-05-14T15:37:56.970Z,2.95
2023-05-14T15:40:26.183Z,3.17
2023-05-14T15:42:54.106Z,3.20
2023-05-14T15:45:22.099Z,2.83
2023-05-14T15:47:50.013Z,4.03
2023-05-14T15:50:17.864Z,4.40
2023-05-14T15:52:45.737Z,3.08
2023-05-14T15:55:13.444Z,3.22
2023-05-14T15:57:42.719Z,3.00
2023-05-14T16:00:11.661Z,3.90
2023-05-14T16:02:40.327Z,3.17
2023-05-14T16:05:09.028Z,3.10
2023-05-14T16:07:37.442Z,3.17
2023-05-14T16:10:06.068Z,3.10
2023-05-14T16:12:34.272Z,5.68
2023-05-14T16:15:03.708Z,3.42
2023-05-14T16:17:32.858Z,5.25
2023-05-14T16:20:01.270Z,3.22
2023-05-14T16:22:29.552Z,2.80
2023-05-14T16:24:57.619Z,4.35
2023-05-14T16:27:26.053Z,3.75
2023-05-14T16:29:54.123Z,3.10
2023-05-14T16:32:24.931Z,3.33
2023-05-14T16:34:52.825Z,2.80
2023-05-14T16:37:20.883Z,3.83
2023-05-14T16:39:49.042Z,2.60
2023-05-14T16:42:16.902Z,2.80
2023-05-14T16:44:44.741Z,4.90
2023-05-14T16:47:13.100Z,3.58
2023-05-14T16:49:43.260Z,3.00
2023-05-14T16:52:11.368Z,3.13
2023-05-14T16:54:39.291Z,2.70
2023-05-14T16:57:07.333Z,2.80
2023-05-14T16:59:35.208Z,3.88
2023-05-14T17:02:03.142Z,2.92
2023-05-14T17:04:32.983Z,3.53
2023-05-14T17:07:02.252Z,3.30
2023-05-14T17:09:30.129Z,3.15
2023-05-14T17:11:58.141Z,3.50
2023-05-14T17:14:26.230Z,3.70
2023-05-14T17:16:55.973Z,2.60
2023-05-14T17:19:23.875Z,3.15
2023-05-14T17:21:51.681Z,2.97
2023-05-14T17:24:20.804Z,2.80
2023-05-14T17:26:48.812Z,4.78
2023-05-14T17:29:16.569Z,3.60
2023-05-14T17:31:44.391Z,4.78
2023-05-14T17:34:12.198Z,3.30
2023-05-14T17:36:40.087Z,7.55
2023-05-14T17:39:07.842Z,4.97
2023-05-14T17:41:37.033Z,7.47
2023-05-14T17:44:05.016Z,7.55
2023-05-14T17:46:33.757Z,10.80
2023-05-14T17:49:01.554Z,10.13
2023-05-14T17:51:29.319Z,9.60
2023-05-14T17:53:57.256Z,5.90
2023-05-14T17:56:25.149Z,5.55
2023-05-14T17:58:54.298Z,4.78
2023-05-14T18:01:22.255Z,5.55
2023-05-14T18:03:50.192Z,3.85
2023-05-14T18:06:18.087Z,4.80
2023-05-14T18:08:45.871Z,3.08
2023-05-14T18:11:13.689Z,5.05
2023-05-14T18:13:41.419Z,3.22
2023-05-14T18:16:10.802Z,5.25
2023-05-14T18:18:38.711Z,2.70
2023-05-14T18:21:06.494Z,3.20
2023-05-14T18:23:34.387Z,3.35
2023-05-14T18:26:02.609Z,5.25
2023-05-14T18:28:30.384Z,5.50
2023-05-14T18:30:58.306Z,5.15
2023-05-14T18:33:29.796Z,3.40
2023-05-14T18:35:57.953Z,4.70
2023-05-14T18:38:26.057Z,3.35
2023-05-14T18:40:53.886Z,3.85
2023-05-14T18:43:21.657Z,3.08
2023-05-14T18:45:49.552Z,2.78
2023-05-14T18:48:17.437Z,4.53
2023-05-14T18:50:46.781Z,4.10
2023-05-14T18:53:14.803Z,2.95
2023-05-14T18:55:42.679Z,4.22
2023-05-14T18:58:10.540Z,4.35
2023-05-14T19:00:38.312Z,5.35
2023-05-14T19:03:06.259Z,9.77
2023-05-14T19:05:34.297Z,5.65
2023-05-14T19:08:03.729Z,5.47
2023-05-14T19:10:31.624Z,5.93
2023-05-14T19:12:59.642Z,4.78
2023-05-14T19:15:27.711Z,5.38
2023-05-14T19:17:56.046Z,5.40
2023-05-14T19:20:24.140Z,7.15
2023-05-14T19:22:52.019Z,6.72
2023-05-14T19:25:21.286Z,4.15
2023-05-14T19:27:51.142Z,4.10
2023-05-14T19:30:20.623Z,3.53
2023-05-14T19:32:48.619Z,2.90
2023-05-14T19:35:16.937Z,3.90
2023-05-14T19:37:44.896Z,3.88
2023-05-14T19:40:13.092Z,3.03
2023-05-14T19:42:42.323Z,4.72
2023-05-14T19:45:10.557Z,4.40
2023-05-14T19:47:38.711Z,6.18
2023-05-14T19:50:08.472Z,5.13
2023-05-14T19:52:36.247Z,3.80
2023-05-14T19:55:04.255Z,2.40
2023-05-14T19:57:31.997Z,4.40
2023-05-14T20:00:01.184Z,3.25
2023-05-14T20:02:29.215Z,3.30
2023-05-14T20:04:57.997Z,4.50
2023-05-14T20:07:26.856Z,2.72
2023-05-14T20:09:54.616Z,3.67
2023-05-14T20:12:22.589Z,7.22
2023-05-14T20:14:50.837Z,4.32
2023-05-14T20:17:20.824Z,8.60
2023-05-14T20:19:48.759Z,3.65
2023-05-14T20:22:16.565Z,2.47
2023-05-14T20:24:44.640Z,5.45
2023-05-14T20:27:12.424Z,2.47
2023-05-14T20:29:40.282Z,3.15
2023-05-14T20:32:08.814Z,2.65
2023-05-14T20:34:38.020Z,4.60
2023-05-14T20:37:06.707Z,2.45
2023-05-14T20:39:34.550Z,3.00
2023-05-14T20:42:02.307Z,2.53
2023-05-14T20:44:30.184Z,5.65
2023-05-14T20:46:58.031Z,2.40
2023-05-14T20:49:25.845Z,3.13
2023-05-14T20:51:55.197Z,2.70
2023-05-14T20:54:22.954Z,2.33
2023-05-14T20:56:50.769Z,2.47
2023-05-14T20:59:18.561Z,4.53
2023-05-14T21:01:46.420Z,3.90
2023-05-14T21:04:15.152Z,4.45
2023-05-14T21:06:43.268Z,5.57
2023-05-14T21:09:12.407Z,2.40
2023-05-14T21:11:40.131Z,3.58
2023-05-14T21:14:07.898Z,3.80
2023-05-14T21:16:35.669Z,2.63
2023-05-14T21:19:03.494Z,2.63
2023-05-14T21:21:31.316Z,4.05
2023-05-14T21:23:59.083Z,3.17
2023-05-14T21:26:33.060Z,3.83
2023-05-14T21:29:01.828Z,4.53
2023-05-14T21:31:29.618Z,5.15
2023-05-14T21:33:57.337Z,2.78
2023-05-14T21:36:25.339Z,3.15
2023-05-14T21:38:53.689Z,2.88
2023-05-14T21:41:21.719Z,4.97
2023-05-14T21:43:50.887Z,7.35
2023-05-14T21:46:19.153Z,5.72
2023-05-14T21:48:46.943Z,4.55
2023-05-14T21:51:14.963Z,3.20
2023-05-14T21:53:42.731Z,7.65
2023-05-14T21:56:10.539Z,3.28
2023-05-14T21:58:38.433Z,4.50
2023-05-14T22:01:09.056Z,7.28
2023-05-14T22:03:36.967Z,3.83
2023-05-14T22:06:05.392Z,3.88
2023-05-14T22:08:33.111Z,4.03
2023-05-14T22:11:00.817Z,4.78
2023-05-14T22:13:28.571Z,3.08
2023-05-14T22:16:09.286Z,3.05
2023-05-14T22:18:42.635Z,3.63
2023-05-14T22:21:10.579Z,3.75
2023-05-14T22:23:38.363Z,4.05
2023-05-14T22:26:06.146Z,3.33
2023-05-14T22:28:33.865Z,4.75
2023-05-14T22:31:01.732Z,3.85
2023-05-14T22:33:29.983Z,3.55
2023-05-14T22:35:59.086Z,5.72
2023-05-14T22:38:26.848Z,2.75
2023-05-14T22:40:54.549Z,3.20
2023-05-14T22:43:22.403Z,2.90
2023-05-14T22:45:50.320Z,3.13
2023-05-14T22:48:18.197Z,3.03
2023-05-14T22:50:45.944Z,2.70
2023-05-14T22:53:15.067Z,3.10
2023-05-14T22:55:42.849Z,7.68
2023-05-14T22:58:10.570Z,2.90
2023-05-14T23:00:38.437Z,2.75
2023-05-14T23:03:06.223Z,3.30
2023-05-14T23:05:34.055Z,3.85
2023-05-14T23:08:01.937Z,4.63
2023-05-14T23:10:31.264Z,5.05
2023-05-14T23:12:59.029Z,3.58
2023-05-14T23:15:27.004Z,3.05
2023-05-14T23:17:55.006Z,3.15
2023-05-14T23:20:22.768Z,3.58
2023-05-14T23:22:50.588Z,3.38
2023-05-14T23:25:18.464Z,3.28
2023-05-14T23:27:47.955Z,4.00
2023-05-14T23:30:15.843Z,5.45
2023-05-14T23:32:43.651Z,3.83
2023-05-14T23:35:11.610Z,3.70
2023-05-14T23:37:42.951Z,9.27
2023-05-14T23:40:11.332Z,5.07
2023-05-14T23:42:39.030Z,3.67
2023-05-14T23:45:09.602Z,3.35
2023-05-14T23:47:37.436Z,4.03
2023-05-14T23:50:05.735Z,7.32
2023-05-14T23:52:33.781Z,6.25
2023-05-14T23:55:01.803Z,3.78
2023-05-14T23:57:29.648Z,3.33
2023-05-14T23:59:57.414Z,5.82
